createdAt,value
2022-11-18T00:00:32.419Z,7.76
2022-11-18T00:05:22.836Z,7.75
2022-11-18T00:10:13.364Z,7.73
2022-11-18T00:15:12.952Z,7.70
2022-11-18T00:20:07.337Z,7.70
2022-11-18T00:24:58.332Z,7.66
2022-11-18T00:29:49.249Z,7.64
2022-11-18T00:34:40.108Z,7.61
2022-11-18T00:39:33.386Z,7.59
2022-11-18T00:44:23.859Z,7.56
2022-11-18T00:49:15.569Z,7.53
2022-11-18T00:54:06.972Z,7.49
2022-11-18T00:59:02.665Z,7.49
2022-11-18T01:03:57.234Z,7.46
2022-11-18T01:08:52.035Z,7.43
2022-11-18T01:13:44.284Z,7.42
2022-11-18T01:18:39.210Z,7.42
2022-11-18T01:23:30.114Z,7.37
2022-11-18T01:28:24.158Z,7.33
2022-11-18T01:33:17.698Z,7.30
2022-11-18T01:38:14.504Z,7.26
2022-11-18T01:43:05.495Z,7.25
2022-11-18T01:48:01.156Z,7.26
2022-11-18T01:52:53.397Z,7.26
2022-11-18T01:57:52.211Z,7.26
2022-11-18T02:02:43.392Z,7.24
2022-11-18T02:07:35.899Z,7.22
2022-11-18T02:12:28.021Z,7.21
2022-11-18T02:17:26.126Z,7.20
2022-11-18T02:22:23.871Z,7.19
2022-11-18T02:27:35.787Z,7.17
2022-11-18T02:32:33.102Z,7.19
2022-11-18T02:37:26.498Z,7.17
2022-11-18T02:42:18.820Z,7.17
2022-11-18T02:47:14.760Z,7.15
2022-11-18T02:52:09.649Z,7.13
2022-11-18T02:57:02.671Z,7.13
2022-11-18T03:01:56.325Z,7.12
2022-11-18T03:06:50.989Z,7.10
2022-11-18T03:11:52.958Z,7.06
2022-11-18T03:16:49.292Z,7.07
2022-11-18T03:21:42.917Z,7.04
2022-11-18T03:26:40.700Z,7.05
2022-11-18T03:31:41.955Z,7.03
2022-11-18T03:36:43.094Z,6.97
2022-11-18T03:41:40.113Z,6.96
2022-11-18T03:46:43.363Z,6.91
2022-11-18T03:51:39.465Z,6.92
2022-11-18T03:56:38.523Z,6.89
2022-11-18T04:01:42.382Z,6.89
2022-11-18T04:06:42.786Z,6.88
2022-11-18T04:11:49.627Z,6.82
2022-11-18T04:16:56.474Z,6.84
2022-11-18T04:21:51.345Z,6.77
2022-11-18T04:26:45.465Z,6.78
2022-11-18T04:31:41.076Z,6.81
2022-11-18T04:36:36.687Z,6.81
2022-11-18T04:41:42.950Z,6.77
2022-11-18T04:46:36.158Z,6.78
2022-11-18T04:51:34.268Z,6.78
2022-11-18T04:56:50.643Z,6.78
2022-11-18T05:01:46.783Z,6.77
2022-11-18T05:06:40.834Z,6.78
2022-11-18T05:11:46.198Z,6.78
2022-11-18T05:16:39.816Z,6.78
2022-11-18T05:21:46.928Z,6.80
2022-11-18T05:26:37.944Z,6.78
2022-11-18T05:31:29.667Z,6.77
2022-11-18T05:36:28.009Z,6.70
2022-11-18T05:41:34.089Z,6.75
2022-11-18T05:46:27.678Z,6.72
2022-11-18T05:51:29.479Z,6.77
2022-11-18T05:56:27.191Z,6.76
2022-11-18T06:01:24.026Z,6.77
2022-11-18T06:06:19.050Z,6.70
2022-11-18T06:11:18.651Z,6.72
2022-11-18T06:16:35.372Z,6.65
2022-11-18T06:21:35.817Z,6.64
2022-11-18T06:26:35.719Z,6.65
2022-11-18T06:31:38.672Z,6.61
2022-11-18T06:36:32.259Z,6.60
2022-11-18T06:41:23.563Z,6.59
2022-11-18T06:46:35.733Z,6.44
2022-11-18T06:51:28.973Z,6.52
2022-11-18T06:56:29.138Z,6.47
2022-11-18T07:01:27.468Z,6.50
2022-11-18T07:06:24.139Z,6.51
2022-11-18T07:11:17.337Z,6.52
2022-11-18T07:16:13.529Z,6.54
2022-11-18T07:21:14.007Z,6.50
2022-11-18T07:26:05.728Z,6.61
2022-11-18T07:30:56.620Z,6.70
2022-11-18T07:35:48.107Z,6.74
2022-11-18T07:40:45.882Z,6.82
2022-11-18T07:45:38.576Z,6.88
2022-11-18T07:50:34.682Z,7.01
2022-11-18T07:55:32.188Z,7.05
2022-11-18T08:00:26.286Z,7.12
2022-11-18T08:05:21.623Z,7.20
2022-11-18T08:10:15.580Z,7.17
2022-11-18T08:15:10.428Z,7.38
2022-11-18T08:20:06.213Z,7.46
2022-11-18T08:24:57.367Z,7.52
2022-11-18T08:29:48.780Z,7.57
2022-11-18T08:34:39.845Z,7.64
2022-11-18T08:39:36.402Z,7.55
2022-11-18T08:44:36.337Z,7.58
2022-11-18T08:49:32.747Z,7.67
2022-11-18T08:54:26.401Z,7.73
2022-11-18T08:59:20.926Z,7.89
2022-11-18T09:04:11.988Z,7.93
2022-11-18T09:09:18.282Z,7.97
2022-11-18T09:15:06.201Z,7.99
2022-11-18T09:24:39.989Z,7.96
2022-11-18T09:29:33.426Z,8.03
2022-11-18T09:34:30.998Z,8.08
2022-11-18T09:39:22.720Z,8.10
2022-11-18T09:44:26.768Z,8.11
2022-11-18T09:49:20.805Z,8.12
2022-11-18T09:54:16.617Z,8.14
2022-11-18T09:59:10.796Z,8.15
2022-11-18T10:04:08.786Z,8.22
2022-11-18T10:09:05.945Z,8.24
2022-11-18T10:14:23.492Z,8.33
2022-11-18T10:19:24.018Z,8.44
2022-11-18T10:24:16.402Z,8.52
2022-11-18T10:29:12.042Z,8.68
2022-11-18T10:34:06.339Z,8.96
2022-11-18T10:39:17.213Z,9.22
2022-11-18T10:44:28.681Z,9.42
2022-11-18T10:49:21.177Z,9.53
2022-11-18T10:54:22.765Z,9.68
2022-11-18T10:59:36.575Z,9.72
2022-11-18T11:04:31.230Z,9.72
2022-11-18T11:09:31.653Z,9.73
2022-11-18T11:14:31.752Z,9.70
2022-11-18T11:19:30.403Z,9.66
2022-11-18T11:24:29.696Z,9.54
2022-11-18T11:29:25.301Z,9.50
2022-11-18T11:34:32.979Z,9.48
2022-11-18T11:39:34.398Z,9.48
2022-11-18T11:44:55.605Z,9.50
2022-11-18T11:49:53.338Z,9.53
2022-11-18T11:54:54.913Z,9.57
2022-11-18T11:59:49.422Z,9.58
2022-11-18T12:04:48.730Z,9.60
2022-11-18T12:10:13.142Z,9.59
2022-11-18T12:15:11.190Z,9.57
2022-11-18T12:20:30.735Z,9.57
2022-11-18T12:25:35.380Z,9.58
2022-11-18T12:30:35.283Z,9.55
2022-11-18T12:35:28.546Z,9.52
2022-11-18T12:40:37.229Z,9.48
2022-11-18T12:45:42.843Z,9.50
2022-11-18T12:50:54.698Z,9.46
2022-11-18T12:55:51.451Z,9.52
2022-11-18T13:00:57.787Z,9.46
2022-11-18T13:05:53.176Z,9.45
2022-11-18T13:10:54.923Z,9.42
2022-11-18T13:16:00.962Z,9.39
2022-11-18T13:20:57.877Z,9.32
2022-11-18T13:25:48.896Z,9.30
2022-11-18T13:30:41.238Z,9.30
2022-11-18T13:35:43.818Z,9.27
2022-11-18T13:41:07.526Z,9.24
2022-11-18T13:46:04.331Z,9.19
2022-11-18T13:51:00.441Z,9.16
2022-11-18T13:56:00.451Z,9.14
2022-11-18T14:00:59.009Z,9.12
2022-11-18T14:05:58.720Z,9.09
2022-11-18T14:10:55.250Z,9.08
2022-11-18T14:15:47.211Z,9.06
2022-11-18T14:20:42.238Z,9.00
2022-11-18T14:25:33.622Z,9.01
2022-11-18T14:30:35.325Z,9.02
2022-11-18T14:35:34.843Z,9.05
2022-11-18T14:40:28.515Z,9.11
2022-11-18T14:45:30.037Z,9.13
2022-11-18T14:50:25.428Z,9.12
2022-11-18T14:55:16.840Z,9.13
2022-11-18T15:00:08.671Z,9.09
2022-11-18T15:05:02.461Z,9.11
2022-11-18T15:09:55.418Z,9.09
2022-11-18T15:14:46.229Z,9.13
2022-11-18T15:19:43.797Z,9.11
2022-11-18T15:24:40.307Z,9.16
2022-11-18T15:29:39.632Z,9.13
2022-11-18T15:34:38.368Z,9.13
2022-11-18T15:39:30.501Z,9.13
2022-11-18T15:44:32.566Z,9.10
2022-11-18T15:49:25.519Z,9.14
2022-11-18T15:54:16.235Z,9.12
2022-11-18T15:59:09.401Z,9.12
2022-11-18T16:04:07.343Z,9.12
2022-11-18T16:09:01.837Z,9.11
2022-11-18T16:13:57.681Z,9.09
2022-11-18T16:18:51.322Z,9.07
2022-11-18T16:23:48.549Z,9.11
2022-11-18T16:28:43.270Z,9.08
2022-11-18T16:33:33.312Z,9.08
2022-11-18T16:38:25.764Z,9.05
2022-11-18T16:43:20.088Z,9.07
2022-11-18T16:48:15.908Z,9.06
2022-11-18T16:53:10.279Z,9.09
2022-11-18T16:58:09.872Z,9.10
2022-11-18T17:03:11.209Z,9.05
2022-11-18T17:08:04.704Z,9.07
2022-11-18T17:12:57.509Z,9.04
2022-11-18T17:17:51.021Z,9.06
2022-11-18T17:22:49.687Z,9.06
2022-11-18T17:27:43.615Z,9.06
2022-11-18T17:32:35.037Z,9.08
2022-11-18T17:37:25.724Z,9.07
2022-11-18T17:42:19.170Z,9.06
2022-11-18T17:47:18.733Z,9.06
2022-11-18T17:52:15.540Z,9.04
2022-11-18T17:57:08.714Z,9.02
2022-11-18T18:01:59.771Z,9.00
2022-11-18T18:06:55.526Z,9.01
2022-11-18T18:11:56.217Z,9.02
2022-11-18T18:16:51.401Z,9.03
2022-11-18T18:21:46.283Z,9.02
2022-11-18T18:26:39.835Z,9.03
2022-11-18T18:31:34.846Z,9.04
2022-11-18T18:36:32.857Z,9.04
2022-11-18T18:41:24.579Z,9.02
2022-11-18T18:46:31.710Z,9.03
2022-11-18T18:51:23.384Z,9.03
2022-11-18T18:56:19.036Z,9.01
2022-11-18T19:01:17.135Z,9.01
2022-11-18T19:11:48.067Z,9.03
2022-11-18T19:16:45.312Z,9.02
2022-11-18T19:21:44.417Z,9.01
2022-11-18T19:26:35.570Z,9.00
2022-11-18T19:31:26.684Z,9.01
2022-11-18T19:36:20.023Z,9.03
2022-11-18T19:41:15.994Z,9.04
2022-11-18T19:46:14.296Z,9.04
2022-11-18T19:51:21.303Z,9.04
2022-11-18T19:56:16.308Z,9.06
2022-11-18T20:01:14.372Z,9.05
2022-11-18T20:06:05.333Z,9.08
2022-11-18T20:10:58.598Z,9.07
2022-11-18T20:16:02.823Z,9.04
2022-11-18T20:21:07.233Z,9.02
2022-11-18T20:26:02.250Z,9.01
2022-11-18T20:31:03.612Z,9.05
2022-11-18T20:35:56.517Z,9.03
2022-11-18T20:40:48.948Z,9.04
2022-11-18T20:45:46.726Z,9.07
2022-11-18T20:50:44.045Z,9.09
2022-11-18T20:55:34.385Z,9.09
2022-11-18T21:00:27.091Z,9.07
2022-11-18T21:05:23.610Z,9.07
2022-11-18T21:10:19.496Z,9.05
2022-11-18T21:15:12.577Z,9.04
2022-11-18T21:20:30.451Z,9.04
2022-11-18T21:25:23.483Z,9.03
2022-11-18T21:30:20.512Z,9.03
2022-11-18T21:35:12.675Z,9.06
2022-11-18T21:40:10.073Z,9.05
2022-11-18T21:45:04.740Z,9.04
2022-11-18T21:49:55.429Z,9.04
2022-11-18T21:54:45.864Z,9.02
2022-11-18T21:59:43.500Z,9.00
2022-11-18T22:04:52.109Z,8.93
2022-11-18T22:09:49.587Z,8.75
2022-11-18T22:14:41.747Z,8.60
2022-11-18T22:19:36.437Z,8.49
2022-11-18T22:24:31.215Z,8.40
2022-11-18T22:29:27.115Z,8.29
2022-11-18T22:34:18.893Z,8.19
2022-11-18T22:39:16.104Z,8.09
2022-11-18T22:44:11.721Z,7.98
2022-11-18T22:49:02.761Z,7.83
2022-11-18T22:59:34.680Z,7.68
2022-11-18T23:04:28.976Z,7.55
2022-11-18T23:09:25.508Z,7.45
2022-11-18T23:14:16.029Z,7.38
2022-11-18T23:19:10.124Z,7.28
2022-11-18T23:24:08.444Z,7.11
2022-11-18T23:28:59.435Z,7.05
2022-11-18T23:33:54.332Z,6.95
2022-11-18T23:38:48.989Z,6.86
2022-11-18T23:43:42.510Z,6.76
2022-11-18T23:48:38.049Z,6.62
2022-11-18T23:53:31.803Z,6.62
2022-11-18T23:58:23.281Z,6.58
